McClure, Pennsylvania
Current Conditions -  °F | °C
As of 2:53 AM on Saturday 29 Nov 2014 (Local Time) from KSEG Reporting Station
Clear Clear  
Wind Chill: 21°   Ceiling: Unl
Heat Index: 21°   Visibility: 10mi
Dew Point: 18°   Wind: 0mph
Humidity: 88%   Direction: NA
Pressure: 30.29"   Gusts: NA
Location:  40.71°N, 77.31°W
Report Text: KSEG 290753Z AUTO 00000KT 10SM CLR M06/M08 A3029 RMK AO2 SLP263 T10611078
Loading
Personal Weather Stations






























Interactive Weather Map New forecast layout! Learn more

10-Day Weather Forecast

Advertisements
Track Severe Weather on mobile